sensor_id;sensor_type;location;lat;lon;timestamp;pressure;altitude;pressure_sealevel;temperature;humidity
11395;BME280;5753;54.402;10.220;2023-03-18T00:00:21;100751.22;;;20.86;34.92
11395;BME280;5753;54.402;10.220;2023-03-18T00:02:48;100749.00;;;21.02;34.54
11395;BME280;5753;54.402;10.220;2023-03-18T00:05:14;100752.53;;;20.36;35.47
11395;BME280;5753;54.402;10.220;2023-03-18T00:07:41;100753.97;;;20.49;35.41
11395;BME280;5753;54.402;10.220;2023-03-18T00:10:09;100757.09;;;20.62;35.21
11395;BME280;5753;54.402;10.220;2023-03-18T00:12:37;100756.25;;;20.26;35.92
11395;BME280;5753;54.402;10.220;2023-03-18T00:15:05;100760.31;;;20.39;35.42
11395;BME280;5753;54.402;10.220;2023-03-18T00:17:32;100759.44;;;20.40;35.38
11395;BME280;5753;54.402;10.220;2023-03-18T00:19:58;100761.88;;;20.79;34.73
11395;BME280;5753;54.402;10.220;2023-03-18T00:22:35;100756.50;;;20.52;35.39
11395;BME280;5753;54.402;10.220;2023-03-18T00:25:02;100748.22;;;20.67;35.12
11395;BME280;5753;54.402;10.220;2023-03-18T00:27:29;100746.09;;;20.82;34.83
11395;BME280;5753;54.402;10.220;2023-03-18T00:29:55;100748.06;;;20.73;34.74
11395;BME280;5753;54.402;10.220;2023-03-18T00:32:24;100749.00;;;20.03;36.01
11395;BME280;5753;54.402;10.220;2023-03-18T00:34:54;100748.84;;;20.09;35.82
11395;BME280;5753;54.402;10.220;2023-03-18T00:37:22;100753.69;;;19.50;36.69
11395;BME280;5753;54.402;10.220;2023-03-18T00:40:09;100752.50;;;19.65;36.24
11395;BME280;5753;54.402;10.220;2023-03-18T00:42:42;100757.47;;;20.81;34.75
11395;BME280;5753;54.402;10.220;2023-03-18T00:45:14;100748.44;;;19.90;36.28
11395;BME280;5753;54.402;10.220;2023-03-18T00:47:41;100747.06;;;19.34;36.71
11395;BME280;5753;54.402;10.220;2023-03-18T00:50:09;100741.03;;;19.30;37.17
11395;BME280;5753;54.402;10.220;2023-03-18T00:52:36;100732.00;;;19.84;36.22
11395;BME280;5753;54.402;10.220;2023-03-18T00:55:03;100735.72;;;19.75;36.29
11395;BME280;5753;54.402;10.220;2023-03-18T00:57:29;100738.34;;;18.92;37.84
11395;BME280;5753;54.402;10.220;2023-03-18T00:59:56;100735.75;;;19.73;36.67
11395;BME280;5753;54.402;10.220;2023-03-18T01:02:24;100738.31;;;19.75;36.24
11395;BME280;5753;54.402;10.220;2023-03-18T01:04:51;100736.59;;;19.74;36.45
11395;BME280;5753;54.402;10.220;2023-03-18T01:07:18;100734.13;;;19.28;37.25
11395;BME280;5753;54.402;10.220;2023-03-18T01:09:44;100741.38;;;19.94;36.40
11395;BME280;5753;54.402;10.220;2023-03-18T01:12:11;100734.56;;;19.08;37.67
11395;BME280;5753;54.402;10.220;2023-03-18T01:14:38;100729.94;;;19.61;36.92
11395;BME280;5753;54.402;10.220;2023-03-18T01:17:06;100730.41;;;19.39;37.36
11395;BME280;5753;54.402;10.220;2023-03-18T01:19:34;100736.16;;;19.15;37.60
11395;BME280;5753;54.402;10.220;2023-03-18T01:22:01;100749.97;;;19.20;37.82
11395;BME280;5753;54.402;10.220;2023-03-18T01:24:29;100741.00;;;18.90;38.00
11395;BME280;5753;54.402;10.220;2023-03-18T01:26:55;100747.13;;;19.31;37.59
11395;BME280;5753;54.402;10.220;2023-03-18T01:29:23;100735.44;;;18.64;38.52
11395;BME280;5753;54.402;10.220;2023-03-18T01:31:50;100738.72;;;19.58;36.91
11395;BME280;5753;54.402;10.220;2023-03-18T01:34:16;100734.47;;;19.91;36.14
11395;BME280;5753;54.402;10.220;2023-03-18T01:36:42;100741.59;;;20.54;35.43
11395;BME280;5753;54.402;10.220;2023-03-18T01:39:09;100742.69;;;20.11;36.08
11395;BME280;5753;54.402;10.220;2023-03-18T01:41:36;100737.81;;;19.96;36.35
11395;BME280;5753;54.402;10.220;2023-03-18T01:44:02;100740.75;;;19.83;36.47
11395;BME280;5753;54.402;10.220;2023-03-18T01:46:41;100735.38;;;20.24;36.28
11395;BME280;5753;54.402;10.220;2023-03-18T01:49:26;100737.97;;;19.52;37.44
11395;BME280;5753;54.402;10.220;2023-03-18T01:52:13;100742.25;;;20.28;35.99
11395;BME280;5753;54.402;10.220;2023-03-18T01:57:20;100733.78;;;20.53;35.45
11395;BME280;5753;54.402;10.220;2023-03-18T01:59:50;100733.72;;;19.85;36.75
11395;BME280;5753;54.402;10.220;2023-03-18T02:02:18;100726.03;;;19.38;37.67
11395;BME280;5753;54.402;10.220;2023-03-18T02:04:57;100717.19;;;19.84;36.68
11395;BME280;5753;54.402;10.220;2023-03-18T02:07:29;100724.66;;;19.99;36.37
11395;BME280;5753;54.402;10.220;2023-03-18T02:10:02;100729.31;;;20.56;35.74
11395;BME280;5753;54.402;10.220;2023-03-18T02:12:31;100716.66;;;20.41;35.64
11395;BME280;5753;54.402;10.220;2023-03-18T02:15:00;100712.09;;;20.13;35.86
11395;BME280;5753;54.402;10.220;2023-03-18T02:17:30;100718.16;;;20.16;36.36
11395;BME280;5753;54.402;10.220;2023-03-18T02:22:38;100722.88;;;20.01;36.52
11395;BME280;5753;54.402;10.220;2023-03-18T02:27:55;100725.25;;;20.10;36.12
11395;BME280;5753;54.402;10.220;2023-03-18T02:30:29;100734.44;;;20.27;36.17
11395;BME280;5753;54.402;10.220;2023-03-18T02:32:58;100737.47;;;19.74;36.70
11395;BME280;5753;54.402;10.220;2023-03-18T02:35:26;100738.59;;;19.23;37.96
11395;BME280;5753;54.402;10.220;2023-03-18T02:37:54;100734.91;;;18.90;38.71
11395;BME280;5753;54.402;10.220;2023-03-18T02:42:50;100732.16;;;19.37;38.25
11395;BME280;5753;54.402;10.220;2023-03-18T02:45:37;100735.28;;;19.14;38.85
11395;BME280;5753;54.402;10.220;2023-03-18T02:48:06;100739.38;;;18.84;39.40
11395;BME280;5753;54.402;10.220;2023-03-18T02:50:35;100733.06;;;20.12;37.21
11395;BME280;5753;54.402;10.220;2023-03-18T02:53:03;100737.16;;;19.88;37.74
11395;BME280;5753;54.402;10.220;2023-03-18T02:55:29;100735.28;;;19.93;38.01
11395;BME280;5753;54.402;10.220;2023-03-18T02:57:56;100739.16;;;19.77;38.69
11395;BME280;5753;54.402;10.220;2023-03-18T03:00:22;100728.56;;;19.44;39.32
11395;BME280;5753;54.402;10.220;2023-03-18T03:02:48;100738.28;;;18.50;40.95
11395;BME280;5753;54.402;10.220;2023-03-18T03:05:14;100740.75;;;19.44;40.17
11395;BME280;5753;54.402;10.220;2023-03-18T03:07:41;100734.38;;;19.57;39.83
11395;BME280;5753;54.402;10.220;2023-03-18T03:10:08;100730.22;;;19.86;38.99
11395;BME280;5753;54.402;10.220;2023-03-18T03:12:34;100737.97;;;18.67;40.96
11395;BME280;5753;54.402;10.220;2023-03-18T03:15:04;100735.31;;;19.13;40.26
11395;BME280;5753;54.402;10.220;2023-03-18T03:17:30;100735.66;;;18.50;42.02
11395;BME280;5753;54.402;10.220;2023-03-18T03:19:56;100740.41;;;19.19;41.25
11395;BME280;5753;54.402;10.220;2023-03-18T03:22:23;100729.19;;;18.21;42.52
11395;BME280;5753;54.402;10.220;2023-03-18T03:24:49;100733.09;;;17.98;43.42
11395;BME280;5753;54.402;10.220;2023-03-18T03:27:15;100732.59;;;18.27;42.97
11395;BME280;5753;54.402;10.220;2023-03-18T03:29:42;100741.25;;;19.21;41.29
11395;BME280;5753;54.402;10.220;2023-03-18T03:32:09;100731.44;;;19.71;40.26
11395;BME280;5753;54.402;10.220;2023-03-18T03:34:36;100734.75;;;19.40;40.62
11395;BME280;5753;54.402;10.220;2023-03-18T03:37:03;100738.06;;;18.61;42.22
11395;BME280;5753;54.402;10.220;2023-03-18T03:39:29;100744.31;;;19.00;41.49
11395;BME280;5753;54.402;10.220;2023-03-18T03:41:56;100740.09;;;18.91;41.49
11395;BME280;5753;54.402;10.220;2023-03-18T03:44:22;100730.13;;;19.52;40.64
11395;BME280;5753;54.402;10.220;2023-03-18T03:46:49;100733.84;;;19.41;40.69
11395;BME280;5753;54.402;10.220;2023-03-18T03:49:15;100737.28;;;19.43;40.44
11395;BME280;5753;54.402;10.220;2023-03-18T03:51:42;100741.50;;;19.49;40.03
11395;BME280;5753;54.402;10.220;2023-03-18T03:54:09;100736.66;;;19.31;40.75
11395;BME280;5753;54.402;10.220;2023-03-18T03:56:36;100735.34;;;19.11;41.27
11395;BME280;5753;54.402;10.220;2023-03-18T03:59:02;100743.63;;;19.72;40.16
11395;BME280;5753;54.402;10.220;2023-03-18T04:01:29;100746.25;;;19.30;40.82
11395;BME280;5753;54.402;10.220;2023-03-18T04:03:55;100746.19;;;18.92;41.41
11395;BME280;5753;54.402;10.220;2023-03-18T04:06:22;100747.78;;;18.54;41.80
11395;BME280;5753;54.402;10.220;2023-03-18T04:08:48;100757.34;;;19.43;40.70
11395;BME280;5753;54.402;10.220;2023-03-18T04:11:14;100757.09;;;19.55;40.47
11395;BME280;5753;54.402;10.220;2023-03-18T04:13:41;100755.06;;;19.26;41.06
11395;BME280;5753;54.402;10.220;2023-03-18T04:16:07;100758.19;;;19.43;40.71
11395;BME280;5753;54.402;10.220;2023-03-18T04:18:34;100770.00;;;19.21;41.40
11395;BME280;5753;54.402;10.220;2023-03-18T04:21:00;100760.31;;;20.03;39.74
11395;BME280;5753;54.402;10.220;2023-03-18T04:23:27;100767.03;;;18.47;42.55
11395;BME280;5753;54.402;10.220;2023-03-18T04:25:53;100767.13;;;18.41;42.78
11395;BME280;5753;54.402;10.220;2023-03-18T04:28:19;100757.88;;;18.23;43.42
11395;BME280;5753;54.402;10.220;2023-03-18T04:30:47;100772.06;;;19.05;41.93
11395;BME280;5753;54.402;10.220;2023-03-18T04:33:13;100759.81;;;19.07;42.17
11395;BME280;5753;54.402;10.220;2023-03-18T04:35:40;100750.09;;;19.14;41.69
11395;BME280;5753;54.402;10.220;2023-03-18T04:38:08;100746.16;;;18.95;41.95
11395;BME280;5753;54.402;10.220;2023-03-18T04:40:34;100749.78;;;18.86;42.12
11395;BME280;5753;54.402;10.220;2023-03-18T04:43:00;100761.25;;;18.79;42.39
11395;BME280;5753;54.402;10.220;2023-03-18T04:45:27;100763.50;;;18.99;41.75
11395;BME280;5753;54.402;10.220;2023-03-18T04:47:54;100755.47;;;20.22;39.81
11395;BME280;5753;54.402;10.220;2023-03-18T04:50:20;100743.72;;;19.67;40.78
11395;BME280;5753;54.402;10.220;2023-03-18T04:52:46;100754.00;;;18.95;41.47
11395;BME280;5753;54.402;10.220;2023-03-18T04:55:13;100758.53;;;20.05;40.18
11395;BME280;5753;54.402;10.220;2023-03-18T04:57:41;100757.66;;;19.28;41.45
11395;BME280;5753;54.402;10.220;2023-03-18T05:00:10;100761.31;;;17.70;45.36
11395;BME280;5753;54.402;10.220;2023-03-18T05:02:39;100739.78;;;19.48;41.47
11395;BME280;5753;54.402;10.220;2023-03-18T05:05:06;100749.00;;;19.66;41.14
11395;BME280;5753;54.402;10.220;2023-03-18T05:07:33;100751.38;;;19.76;41.07
11395;BME280;5753;54.402;10.220;2023-03-18T05:09:59;100763.47;;;19.80;40.62
11395;BME280;5753;54.402;10.220;2023-03-18T05:12:25;100760.72;;;18.60;43.42
11395;BME280;5753;54.402;10.220;2023-03-18T05:14:52;100751.56;;;19.27;42.43
11395;BME280;5753;54.402;10.220;2023-03-18T05:17:18;100738.25;;;19.78;41.00
11395;BME280;5753;54.402;10.220;2023-03-18T05:19:47;100740.97;;;19.33;42.30
11395;BME280;5753;54.402;10.220;2023-03-18T05:22:16;100746.03;;;19.42;42.22
11395;BME280;5753;54.402;10.220;2023-03-18T05:24:43;100750.34;;;19.82;41.13
11395;BME280;5753;54.402;10.220;2023-03-18T05:27:11;100756.72;;;19.30;42.31
11395;BME280;5753;54.402;10.220;2023-03-18T05:29:39;100763.56;;;18.48;44.24
11395;BME280;5753;54.402;10.220;2023-03-18T05:32:06;100763.59;;;18.45;43.91
11395;BME280;5753;54.402;10.220;2023-03-18T05:34:37;100759.91;;;18.06;45.22
11395;BME280;5753;54.402;10.220;2023-03-18T05:37:04;100778.53;;;18.84;43.57
11395;BME280;5753;54.402;10.220;2023-03-18T05:39:32;100776.63;;;18.96;43.55
11395;BME280;5753;54.402;10.220;2023-03-18T05:41:59;100775.66;;;19.41;42.75
11395;BME280;5753;54.402;10.220;2023-03-18T05:44:26;100768.81;;;18.45;44.72
11395;BME280;5753;54.402;10.220;2023-03-18T05:46:53;100767.34;;;18.78;44.55
11395;BME280;5753;54.402;10.220;2023-03-18T05:49:19;100759.94;;;20.19;41.28
11395;BME280;5753;54.402;10.220;2023-03-18T05:51:46;100752.25;;;19.75;41.94
11395;BME280;5753;54.402;10.220;2023-03-18T05:54:15;100764.94;;;18.16;45.31
11395;BME280;5753;54.402;10.220;2023-03-18T05:56:42;100780.25;;;18.85;44.28
11395;BME280;5753;54.402;10.220;2023-03-18T05:59:11;100778.25;;;20.19;42.00
11395;BME280;5753;54.402;10.220;2023-03-18T06:01:39;100786.00;;;19.47;43.07
11395;BME280;5753;54.402;10.220;2023-03-18T06:04:06;100771.09;;;19.53;43.23
11395;BME280;5753;54.402;10.220;2023-03-18T06:06:34;100784.13;;;18.66;45.08
11395;BME280;5753;54.402;10.220;2023-03-18T06:09:02;100784.09;;;19.94;42.46
11395;BME280;5753;54.402;10.220;2023-03-18T06:11:29;100781.25;;;20.03;42.42
11395;BME280;5753;54.402;10.220;2023-03-18T06:13:55;100793.19;;;17.24;49.06
11395;BME280;5753;54.402;10.220;2023-03-18T06:16:22;100791.50;;;18.89;45.01
11395;BME280;5753;54.402;10.220;2023-03-18T06:18:48;100800.22;;;18.90;44.88
11395;BME280;5753;54.402;10.220;2023-03-18T06:21:16;100799.97;;;19.03;44.93
11395;BME280;5753;54.402;10.220;2023-03-18T06:23:42;100795.13;;;18.82;45.43
11395;BME280;5753;54.402;10.220;2023-03-18T06:26:09;100805.75;;;17.59;47.43
11395;BME280;5753;54.402;10.220;2023-03-18T06:28:36;100798.19;;;19.47;44.22
11395;BME280;5753;54.402;10.220;2023-03-18T06:31:02;100802.41;;;18.66;45.61
11395;BME280;5753;54.402;10.220;2023-03-18T06:33:28;100811.78;;;17.62;48.11
11395;BME280;5753;54.402;10.220;2023-03-18T06:35:55;100799.28;;;18.94;45.37
11395;BME280;5753;54.402;10.220;2023-03-18T06:38:22;100810.75;;;18.34;46.90
11395;BME280;5753;54.402;10.220;2023-03-18T06:40:48;100814.88;;;18.47;46.68
11395;BME280;5753;54.402;10.220;2023-03-18T06:43:15;100805.84;;;19.14;45.47
11395;BME280;5753;54.402;10.220;2023-03-18T06:45:41;100809.25;;;17.58;48.90
11395;BME280;5753;54.402;10.220;2023-03-18T06:48:07;100811.34;;;17.98;48.12
11395;BME280;5753;54.402;10.220;2023-03-18T06:50:35;100815.75;;;19.42;44.70
11395;BME280;5753;54.402;10.220;2023-03-18T06:53:03;100819.50;;;18.82;46.50
11395;BME280;5753;54.402;10.220;2023-03-18T06:55:30;100819.09;;;19.05;45.79
11395;BME280;5753;54.402;10.220;2023-03-18T06:57:56;100832.53;;;19.29;45.59
11395;BME280;5753;54.402;10.220;2023-03-18T07:00:23;100828.28;;;17.63;48.85
11395;BME280;5753;54.402;10.220;2023-03-18T07:02:50;100829.44;;;19.10;46.23
11395;BME280;5753;54.402;10.220;2023-03-18T07:05:18;100833.91;;;18.54;47.08
11395;BME280;5753;54.402;10.220;2023-03-18T07:07:45;100824.09;;;18.16;48.17
11395;BME280;5753;54.402;10.220;2023-03-18T07:10:33;100831.59;;;18.36;47.69
11395;BME280;5753;54.402;10.220;2023-03-18T07:13:00;100835.88;;;17.83;49.21
11395;BME280;5753;54.402;10.220;2023-03-18T07:15:26;100832.84;;;18.12;48.19
11395;BME280;5753;54.402;10.220;2023-03-18T07:17:53;100837.94;;;17.56;50.59
11395;BME280;5753;54.402;10.220;2023-03-18T07:20:20;100839.84;;;19.13;47.08
11395;BME280;5753;54.402;10.220;2023-03-18T07:22:47;100839.63;;;18.22;48.26
11395;BME280;5753;54.402;10.220;2023-03-18T07:25:14;100836.41;;;19.09;46.85
11395;BME280;5753;54.402;10.220;2023-03-18T07:27:41;100841.75;;;17.99;48.96
11395;BME280;5753;54.402;10.220;2023-03-18T07:30:08;100843.50;;;18.53;48.57
11395;BME280;5753;54.402;10.220;2023-03-18T07:32:36;100846.38;;;18.87;47.75
11395;BME280;5753;54.402;10.220;2023-03-18T07:35:04;100848.50;;;18.67;48.08
11395;BME280;5753;54.402;10.220;2023-03-18T07:37:31;100847.72;;;19.10;46.97
11395;BME280;5753;54.402;10.220;2023-03-18T07:39:58;100854.63;;;19.14;46.85
11395;BME280;5753;54.402;10.220;2023-03-18T07:42:24;100855.41;;;18.71;47.88
11395;BME280;5753;54.402;10.220;2023-03-18T07:44:50;100867.94;;;18.48;47.93
11395;BME280;5753;54.402;10.220;2023-03-18T07:47:17;100875.91;;;18.39;48.02
11395;BME280;5753;54.402;10.220;2023-03-18T07:49:45;100875.78;;;17.88;49.40
11395;BME280;5753;54.402;10.220;2023-03-18T07:52:12;100871.22;;;19.58;46.21
11395;BME280;5753;54.402;10.220;2023-03-18T07:54:38;100884.22;;;19.61;46.71
11395;BME280;5753;54.402;10.220;2023-03-18T07:57:04;100885.41;;;19.44;46.43
11395;BME280;5753;54.402;10.220;2023-03-18T07:59:31;100880.28;;;18.92;47.91
11395;BME280;5753;54.402;10.220;2023-03-18T08:01:57;100892.22;;;20.32;44.96
11395;BME280;5753;54.402;10.220;2023-03-18T08:04:24;100897.75;;;18.32;48.81
11395;BME280;5753;54.402;10.220;2023-03-18T08:06:50;100891.66;;;16.85;52.28
11395;BME280;5753;54.402;10.220;2023-03-18T08:09:16;100884.75;;;18.29;49.49
11395;BME280;5753;54.402;10.220;2023-03-18T08:11:42;100879.66;;;18.78;48.86
11395;BME280;5753;54.402;10.220;2023-03-18T08:14:08;100887.34;;;19.33;47.79
11395;BME280;5753;54.402;10.220;2023-03-18T08:16:34;100879.56;;;19.30;47.36
11395;BME280;5753;54.402;10.220;2023-03-18T08:19:01;100881.06;;;17.82;50.49
11395;BME280;5753;54.402;10.220;2023-03-18T08:21:27;100881.06;;;18.42;49.10
11395;BME280;5753;54.402;10.220;2023-03-18T08:23:54;100880.75;;;18.65;48.89
11395;BME280;5753;54.402;10.220;2023-03-18T08:26:21;100892.00;;;19.64;47.38
11395;BME280;5753;54.402;10.220;2023-03-18T08:28:47;100889.88;;;19.81;45.98
11395;BME280;5753;54.402;10.220;2023-03-18T08:31:13;100904.22;;;18.08;50.04
11395;BME280;5753;54.402;10.220;2023-03-18T08:33:40;100901.19;;;18.91;48.96
11395;BME280;5753;54.402;10.220;2023-03-18T08:36:07;100900.09;;;18.50;49.88
11395;BME280;5753;54.402;10.220;2023-03-18T08:38:34;100885.56;;;19.35;47.90
11395;BME280;5753;54.402;10.220;2023-03-18T08:41:00;100886.38;;;18.93;48.05
11395;BME280;5753;54.402;10.220;2023-03-18T08:43:26;100895.03;;;19.84;47.09
11395;BME280;5753;54.402;10.220;2023-03-18T08:45:53;100898.25;;;19.98;46.92
11395;BME280;5753;54.402;10.220;2023-03-18T08:48:21;100891.63;;;19.80;47.26
11395;BME280;5753;54.402;10.220;2023-03-18T08:50:48;100896.41;;;18.65;49.22
11395;BME280;5753;54.402;10.220;2023-03-18T08:53:14;100903.03;;;19.78;47.31
11395;BME280;5753;54.402;10.220;2023-03-18T08:55:41;100902.13;;;19.34;48.20
11395;BME280;5753;54.402;10.220;2023-03-18T08:58:07;100900.41;;;19.78;47.43
11395;BME280;5753;54.402;10.220;2023-03-18T09:00:36;100903.44;;;20.40;46.13
11395;BME280;5753;54.402;10.220;2023-03-18T09:03:03;100921.94;;;19.92;46.71
11395;BME280;5753;54.402;10.220;2023-03-18T09:05:29;100917.09;;;19.26;48.20
11395;BME280;5753;54.402;10.220;2023-03-18T09:07:56;100927.75;;;20.81;45.05
11395;BME280;5753;54.402;10.220;2023-03-18T09:10:24;100931.06;;;20.13;45.75
11395;BME280;5753;54.402;10.220;2023-03-18T09:12:50;100935.13;;;19.86;46.51
11395;BME280;5753;54.402;10.220;2023-03-18T09:15:17;100939.59;;;20.61;45.15
11395;BME280;5753;54.402;10.220;2023-03-18T09:17:47;100944.84;;;20.60;45.00
11395;BME280;5753;54.402;10.220;2023-03-18T09:20:15;100957.25;;;20.53;45.80
11395;BME280;5753;54.402;10.220;2023-03-18T09:22:43;100944.50;;;21.09;43.82
11395;BME280;5753;54.402;10.220;2023-03-18T09:25:10;100957.84;;;20.64;45.66
11395;BME280;5753;54.402;10.220;2023-03-18T09:27:36;100961.19;;;19.92;47.14
11395;BME280;5753;54.402;10.220;2023-03-18T09:30:03;100961.16;;;20.32;46.39
11395;BME280;5753;54.402;10.220;2023-03-18T09:32:30;100967.28;;;20.31;46.09
11395;BME280;5753;54.402;10.220;2023-03-18T09:34:56;100966.88;;;20.51;45.17
11395;BME280;5753;54.402;10.220;2023-03-18T09:37:22;100967.78;;;19.67;46.89
11395;BME280;5753;54.402;10.220;2023-03-18T09:39:48;100957.06;;;21.32;44.14
11395;BME280;5753;54.402;10.220;2023-03-18T09:45:18;100962.56;;;21.20;44.54
11395;BME280;5753;54.402;10.220;2023-03-18T09:53:02;100972.16;;;19.65;48.04
11395;BME280;5753;54.402;10.220;2023-03-18T09:55:51;100965.94;;;20.13;47.47
11395;BME280;5753;54.402;10.220;2023-03-18T09:58:32;100965.41;;;20.77;45.65
11395;BME280;5753;54.402;10.220;2023-03-18T10:01:02;100967.94;;;20.02;47.14
11395;BME280;5753;54.402;10.220;2023-03-18T10:04:05;100977.13;;;20.20;46.99
11395;BME280;5753;54.402;10.220;2023-03-18T10:06:37;100986.19;;;20.47;46.91
11395;BME280;5753;54.402;10.220;2023-03-18T10:09:23;100982.97;;;20.33;47.02
11395;BME280;5753;54.402;10.220;2023-03-18T10:11:58;100989.75;;;19.07;49.18
11395;BME280;5753;54.402;10.220;2023-03-18T10:19:18;101008.88;;;20.85;47.36
11395;BME280;5753;54.402;10.220;2023-03-18T10:22:00;101007.31;;;20.38;47.67
11395;BME280;5753;54.402;10.220;2023-03-18T10:24:41;101004.78;;;20.73;46.90
11395;BME280;5753;54.402;10.220;2023-03-18T10:30:14;101010.41;;;20.57;47.00
11395;BME280;5753;54.402;10.220;2023-03-18T10:38:32;101012.00;;;19.79;48.46
11395;BME280;5753;54.402;10.220;2023-03-18T10:41:01;101012.88;;;21.00;46.13
11395;BME280;5753;54.402;10.220;2023-03-18T10:43:30;101020.59;;;22.07;44.45
11395;BME280;5753;54.402;10.220;2023-03-18T10:46:00;101008.00;;;21.56;45.17
11395;BME280;5753;54.402;10.220;2023-03-18T10:48:36;101015.03;;;21.54;45.90
11395;BME280;5753;54.402;10.220;2023-03-18T10:56:14;101045.28;;;20.97;48.33
11395;BME280;5753;54.402;10.220;2023-03-18T10:58:41;101046.13;;;20.98;47.98
11395;BME280;5753;54.402;10.220;2023-03-18T11:01:10;101050.06;;;20.79;49.14
11395;BME280;5753;54.402;10.220;2023-03-18T11:04:02;101045.41;;;21.28;47.69
11395;BME280;5753;54.402;10.220;2023-03-18T11:06:45;101045.19;;;22.03;45.90
11395;BME280;5753;54.402;10.220;2023-03-18T11:09:18;101041.28;;;21.54;47.04
11395;BME280;5753;54.402;10.220;2023-03-18T11:11:47;101037.63;;;21.92;45.88
11395;BME280;5753;54.402;10.220;2023-03-18T11:14:19;101028.03;;;21.58;46.37
11395;BME280;5753;54.402;10.220;2023-03-18T11:16:50;101034.53;;;21.44;46.78
11395;BME280;5753;54.402;10.220;2023-03-18T11:19:31;101032.28;;;22.85;44.12
11395;BME280;5753;54.402;10.220;2023-03-18T11:22:08;101033.31;;;22.79;43.82
11395;BME280;5753;54.402;10.220;2023-03-18T11:24:40;101029.09;;;20.79;48.22
11395;BME280;5753;54.402;10.220;2023-03-18T11:29:44;101032.13;;;20.99;47.73
11395;BME280;5753;54.402;10.220;2023-03-18T11:32:31;101032.78;;;21.44;46.60
11395;BME280;5753;54.402;10.220;2023-03-18T11:35:01;101034.72;;;21.38;46.43
11395;BME280;5753;54.402;10.220;2023-03-18T11:37:39;101031.81;;;21.81;46.43
11395;BME280;5753;54.402;10.220;2023-03-18T11:42:47;101035.59;;;21.69;46.40
11395;BME280;5753;54.402;10.220;2023-03-18T11:47:51;101036.19;;;21.48;46.72
11395;BME280;5753;54.402;10.220;2023-03-18T11:50:21;101040.66;;;21.07;47.73
11395;BME280;5753;54.402;10.220;2023-03-18T11:53:35;101047.50;;;21.50;47.26
11395;BME280;5753;54.402;10.220;2023-03-18T12:07:35;101063.97;;;21.55;46.78
11395;BME280;5753;54.402;10.220;2023-03-18T12:10:17;101063.00;;;21.23;47.69
11395;BME280;5753;54.402;10.220;2023-03-18T12:13:22;101061.38;;;21.53;45.82
11395;BME280;5753;54.402;10.220;2023-03-18T12:20:51;101065.16;;;20.67;48.31
11395;BME280;5753;54.402;10.220;2023-03-18T12:23:43;101074.47;;;21.55;47.25
11395;BME280;5753;54.402;10.220;2023-03-18T12:32:23;101082.16;;;22.27;44.99
11395;BME280;5753;54.402;10.220;2023-03-18T12:43:17;101114.13;;;20.19;50.41
11395;BME280;5753;54.402;10.220;2023-03-18T12:45:50;101107.41;;;21.99;46.39
11395;BME280;5753;54.402;10.220;2023-03-18T12:48:23;101105.34;;;21.79;47.14
11395;BME280;5753;54.402;10.220;2023-03-18T12:50:54;101104.84;;;23.18;43.59
11395;BME280;5753;54.402;10.220;2023-03-18T12:53:43;101108.28;;;22.32;45.05
11395;BME280;5753;54.402;10.220;2023-03-18T12:56:15;101114.66;;;20.80;47.98
11395;BME280;5753;54.402;10.220;2023-03-18T12:58:52;101111.56;;;20.62;49.04
11395;BME280;5753;54.402;10.220;2023-03-18T13:04:20;101115.09;;;21.39;47.84
11395;BME280;5753;54.402;10.220;2023-03-18T13:09:49;101114.41;;;21.66;47.67
11395;BME280;5753;54.402;10.220;2023-03-18T13:12:34;101113.00;;;21.53;47.68
11395;BME280;5753;54.402;10.220;2023-03-18T13:17:53;101124.06;;;20.90;47.80
11395;BME280;5753;54.402;10.220;2023-03-18T13:20:23;101119.06;;;20.36;49.07
11395;BME280;5753;54.402;10.220;2023-03-18T13:24:03;101130.00;;;20.98;48.52
11395;BME280;5753;54.402;10.220;2023-03-18T13:34:17;101146.19;;;21.54;46.91
11395;BME280;5753;54.402;10.220;2023-03-18T13:45:03;101139.75;;;23.23;43.50
11395;BME280;5753;54.402;10.220;2023-03-18T13:47:34;101139.31;;;21.84;46.23
11395;BME280;5753;54.402;10.220;2023-03-18T13:50:38;101132.00;;;25.17;39.83
11395;BME280;5753;54.402;10.220;2023-03-18T13:53:20;101128.28;;;23.79;42.29
11395;BME280;5753;54.402;10.220;2023-03-18T13:55:59;101137.19;;;22.32;43.39
11395;BME280;5753;54.402;10.220;2023-03-18T13:58:43;101136.75;;;22.47;43.97
11395;BME280;5753;54.402;10.220;2023-03-18T14:01:53;101137.75;;;24.81;39.69
11395;BME280;5753;54.402;10.220;2023-03-18T14:07:21;101132.41;;;25.92;37.66
11395;BME280;5753;54.402;10.220;2023-03-18T14:10:06;101132.81;;;27.72;35.25
11395;BME280;5753;54.402;10.220;2023-03-18T14:12:38;101127.81;;;28.51;33.42
11395;BME280;5753;54.402;10.220;2023-03-18T14:15:34;101127.81;;;28.01;33.63
11395;BME280;5753;54.402;10.220;2023-03-18T14:18:01;101133.75;;;27.35;34.50
11395;BME280;5753;54.402;10.220;2023-03-18T14:20:51;101123.63;;;27.26;35.18
11395;BME280;5753;54.402;10.220;2023-03-18T14:23:41;101130.94;;;27.21;34.71
11395;BME280;5753;54.402;10.220;2023-03-18T14:26:20;101137.41;;;29.32;32.20
11395;BME280;5753;54.402;10.220;2023-03-18T14:28:56;101138.78;;;29.85;30.60
11395;BME280;5753;54.402;10.220;2023-03-18T14:39:47;101149.88;;;28.84;31.73
11395;BME280;5753;54.402;10.220;2023-03-18T14:42:31;101151.78;;;28.81;31.64
11395;BME280;5753;54.402;10.220;2023-03-18T14:45:18;101156.44;;;29.56;30.48
11395;BME280;5753;54.402;10.220;2023-03-18T14:47:52;101163.44;;;27.78;32.75
11395;BME280;5753;54.402;10.220;2023-03-18T14:53:13;101164.94;;;24.10;39.48
11395;BME280;5753;54.402;10.220;2023-03-18T14:55:42;101169.41;;;20.93;44.53
11395;BME280;5753;54.402;10.220;2023-03-18T14:58:17;101174.16;;;22.24;43.35
11395;BME280;5753;54.402;10.220;2023-03-18T15:00:45;101180.56;;;21.79;44.09